KCRE/CRE METAR and TAF weather

Enter ICAO airport designator
Station Type Date Time Source
KCRE METAR 2022/06/30 14:06 UTC NOAA

KCRE 301406Z 07003KT 10SM BKN020 28/23 A3022 RMK AO1 T02830228


Station Type Date Time Source
KCRE Decoded METAR 2022/06/30 14:06 UTC NOAA

N. MYRTLE BCH.GRAND STRAND, SC, United States (KCRE) 33-49N 078-43W 10M
Jun 30, 2022 - 10:06 AM EDT / 2022.06.30 1406 UTC
Wind: from the ENE (070 degrees) at 3 MPH (3 KT):0
Visibility: 10 mile(s):0
Sky conditions: mostly cloudy
Temperature: 82.9 F (28.3 C)
Dew Point: 73.0 F (22.8 C)
Relative Humidity: 72%
Pressure (altimeter): 30.22 in. Hg (1023 hPa)
ob: KCRE 301406Z 07003KT 10SM BKN020 28/23 A3022 RMK AO1 T02830228
cycle: 14

Station Type Date Time Source
KCRE TAF 2022/06/30 12:22 UTC NOAA

TAF KCRE 301120Z 3012/0112 08005KT P6SM VCSH SCT015 BKN035 OVC250
FM301600 12010KT P6SM VCTS SCT025CB BKN040 OVC250
FM302200 15009KT P6SM SCT100 OVC200
FM010300 18004KT P6SM SCT120 BKN250
FM010900 15004KT 6SM -SHRA BR SCT012 BKN025 OVC050

Example: see airport list